Time;durP1;ratioP1;P1;durP2;ratioP2;P2;SDS_P1;SDS_P2;PMS_P1;PMS_P2;Temp;Humidity;BMP_temperature;BMP_pressure;BME280_temperature;BME280_humidity;BME280_pressure;Samples;Min_cycle;Max_cycle;Signal;HPM_P1;HPM_P2
2022/01/13 00:00:33;;;;;;;2.17;0.32;;;22.80;99.90;;;;;;5030481;28;20069;-65
2022/01/13 00:03:00;;;;;;;2.63;0.40;;;22.70;99.90;;;;;;5033566;28;20029;-65
2022/01/13 00:05:29;;;;;;;3.33;0.45;;;22.80;99.90;;;;;;5030407;28;20033;-64
2022/01/13 00:07:58;;;;;;;2.80;0.52;;;22.80;99.90;;;;;;5021457;28;20120;-65
2022/01/13 00:10:27;;;;;;;2.35;0.38;;;22.90;99.90;;;;;;5026405;28;20046;-65
2022/01/13 00:13:03;;;;;;;5.10;0.80;;;23.00;99.90;;;;;;5033224;28;20048;-64
2022/01/13 00:15:47;;;;;;;1.83;0.52;;;23.20;99.90;;;;;;5026446;28;20355;-64
2022/01/13 00:18:18;;;;;;;2.10;0.57;;;23.20;99.90;;;;;;5018994;28;20041;-64
2022/01/13 00:26:08;;;;;;;2.30;0.82;;;23.40;99.90;;;;;;5028106;28;20536;-64
2022/01/13 00:28:36;;;;;;;2.90;0.55;;;23.40;99.90;;;;;;5028790;28;20155;-65
2022/01/13 00:31:06;;;;;;;3.67;0.40;;;23.50;99.90;;;;;;5022163;28;20041;-64
2022/01/13 00:33:33;;;;;;;2.95;0.75;;;23.60;99.90;;;;;;5020167;28;20036;-64
2022/01/13 00:36:02;;;;;;;3.25;0.68;;;23.60;99.90;;;;;;5028341;28;20060;-64
2022/01/13 00:38:31;;;;;;;3.85;0.98;;;23.60;99.90;;;;;;5026188;28;20028;-64
2022/01/13 00:40:59;;;;;;;1.95;0.47;;;23.60;99.90;;;;;;5023540;28;20022;-63
2022/01/13 00:43:26;;;;;;;3.35;0.57;;;23.60;99.90;;;;;;5022079;28;20030;-64
2022/01/13 00:45:54;;;;;;;4.60;1.00;;;23.50;99.90;;;;;;5022198;28;20486;-64
2022/01/13 00:48:21;;;;;;;1.98;0.77;;;23.50;99.90;;;;;;5023876;28;20133;-64
2022/01/13 00:50:49;;;;;;;4.00;0.98;;;23.40;99.90;;;;;;5014086;28;20022;-64
2022/01/13 00:53:16;;;;;;;3.22;0.40;;;23.40;99.90;;;;;;5021368;28;20030;-64
2022/01/13 00:55:48;;;;;;;5.97;0.88;;;23.40;99.90;;;;;;5028147;28;20496;-65
2022/01/13 00:58:16;;;;;;;10.70;2.28;;;23.40;99.90;;;;;;5030304;28;20557;-64
2022/01/13 01:00:44;;;;;;;8.60;2.13;;;23.40;99.90;;;;;;5030389;28;20025;-64
2022/01/13 01:03:11;;;;;;;7.43;1.25;;;23.30;99.90;;;;;;5022143;28;20030;-64
2022/01/13 01:05:39;;;;;;;5.40;1.05;;;23.20;99.90;;;;;;5025381;28;20470;-66
2022/01/13 01:08:09;;;;;;;5.20;1.00;;;23.20;99.90;;;;;;5027765;28;20446;-64
2022/01/13 01:10:36;;;;;;;5.78;1.05;;;23.20;99.90;;;;;;5037734;28;20029;-64
2022/01/13 01:13:12;;;;;;;4.15;0.60;;;23.10;99.90;;;;;;5052349;28;20048;-63
2022/01/13 01:15:44;;;;;;;2.95;0.60;;;23.10;99.90;;;;;;5032855;28;20041;-63
2022/01/13 01:18:29;;;;;;;4.22;1.15;;;23.00;99.90;;;;;;5020151;28;20063;-63
2022/01/13 01:26:43;;;;;;;4.07;1.10;;;23.00;99.90;;;;;;5026673;28;20024;-64
2022/01/13 01:31:54;;;;;;;4.97;1.33;;;22.70;99.90;;;;;;5026506;28;20065;-65
2022/01/13 01:35:04;;;;;;;3.97;1.00;;;22.60;99.90;;;;;;5030674;28;20021;-65
2022/01/13 01:37:27;;;;;;;5.63;0.80;;;22.40;99.90;;;;;;5034360;28;20076;-65
2022/01/13 01:39:55;;;;;;;4.60;0.93;;;22.10;99.90;;;;;;5019743;28;20481;-65
2022/01/13 01:42:25;;;;;;;5.15;0.77;;;22.10;99.90;;;;;;5031386;28;20013;-64
2022/01/13 01:44:55;;;;;;;2.03;0.52;;;21.90;99.90;;;;;;5031210;28;20032;-65
2022/01/13 01:47:27;;;;;;;3.13;1.20;;;21.70;99.90;;;;;;5017606;28;20050;-65
2022/01/13 01:50:11;;;;;;;;;;;21.60;99.90;;;;;;5022437;28;20406;-64
2022/01/13 01:52:40;;;;;;;3.50;1.08;;;21.50;99.90;;;;;;5031424;28;19909;-65
2022/01/13 01:55:08;;;;;;;8.25;2.33;;;21.50;99.90;;;;;;5031628;28;20021;-65
2022/01/13 01:57:36;;;;;;;9.05;1.73;;;21.40;99.90;;;;;;5030622;28;20437;-65
2022/01/13 02:00:08;;;;;;;12.50;1.85;;;21.00;99.90;;;;;;5021662;28;20030;-65
2022/01/13 02:02:36;;;;;;;7.70;1.30;;;20.90;99.90;;;;;;5031610;28;20112;-65
2022/01/13 02:05:04;;;;;;;9.93;1.98;;;20.80;99.90;;;;;;5031615;28;20432;-65
2022/01/13 02:07:31;;;;;;;11.27;1.83;;;20.70;99.90;;;;;;5025293;28;20026;-64
2022/01/13 02:09:58;;;;;;;9.50;2.40;;;20.60;99.90;;;;;;5019509;28;20606;-65
2022/01/13 02:12:43;;;;;;;9.27;2.50;;;20.60;99.90;;;;;;5031345;28;20080;-65
2022/01/13 02:15:33;;;;;;;10.82;2.25;;;20.50;99.90;;;;;;5026714;28;20109;-65
2022/01/13 02:18:04;;;;;;;11.10;2.28;;;20.50;99.90;;;;;;5032054;28;20025;-65
2022/01/13 02:20:46;;;;;;;6.05;2.08;;;20.50;99.90;;;;;;5016465;28;20506;-65
2022/01/13 02:23:14;;;;;;;7.85;1.73;;;20.60;99.90;;;;;;5044520;28;20055;-65
2022/01/13 02:25:41;;;;;;;3.95;1.23;;;20.50;99.90;;;;;;5027491;28;20041;-65
2022/01/13 02:28:08;;;;;;;3.42;1.17;;;20.50;99.90;;;;;;5032329;28;20091;-66
2022/01/13 02:30:36;;;;;;;4.65;1.08;;;20.60;99.90;;;;;;5029799;28;20029;-65
2022/01/13 02:33:03;;;;;;;5.85;1.40;;;20.60;99.90;;;;;;5022774;28;20045;-65
2022/01/13 02:35:35;;;;;;;5.43;1.95;;;20.70;99.90;;;;;;5022847;28;20501;-65
2022/01/13 02:38:08;;;;;;;5.60;1.38;;;20.90;99.90;;;;;;5022943;28;20018;-66
2022/01/13 02:40:35;;;;;;;4.13;1.35;;;21.00;99.90;;;;;;5027865;28;20038;-66
2022/01/13 02:43:04;;;;;;;3.33;1.00;;;21.10;99.90;;;;;;5031878;28;20029;-66
2022/01/13 02:45:35;;;;;;;5.13;1.10;;;21.00;99.90;;;;;;5027926;28;20052;-66
2022/01/13 02:50:30;;;;;;;8.68;1.45;;;21.00;99.90;;;;;;5032490;28;20184;-66
2022/01/13 02:52:57;;;;;;;5.93;1.30;;;21.00;99.90;;;;;;5026444;28;20351;-66
2022/01/13 02:55:24;;;;;;;5.40;1.48;;;21.00;99.90;;;;;;5028984;28;20026;-66
2022/01/13 02:57:51;;;;;;;6.22;1.10;;;21.20;99.90;;;;;;5030541;28;20030;-66
2022/01/13 03:00:19;;;;;;;3.40;1.50;;;21.30;99.90;;;;;;5033826;28;20061;-66
2022/01/13 03:02:47;;;;;;;4.15;1.20;;;21.30;99.90;;;;;;5019004;28;20135;-66
2022/01/13 03:05:16;;;;;;;5.45;1.10;;;21.40;99.90;;;;;;5028302;28;20032;-66
2022/01/13 03:07:43;;;;;;;3.45;1.00;;;21.40;99.90;;;;;;5022057;28;20021;-67
2022/01/13 03:10:13;;;;;;;4.85;1.73;;;21.40;99.90;;;;;;5024251;28;20041;-66
2022/01/13 03:12:44;;;;;;;5.45;1.17;;;21.40;99.90;;;;;;5018701;28;20038;-66
2022/01/13 03:15:12;;;;;;;4.00;1.83;;;21.50;99.90;;;;;;5028018;28;20026;-67
2022/01/13 03:17:39;;;;;;;8.38;2.25;;;21.70;99.90;;;;;;5033305;28;20033;-67
2022/01/13 03:20:07;;;;;;;6.20;1.85;;;21.80;99.90;;;;;;5025602;28;20030;-67
2022/01/13 03:22:34;;;;;;;6.20;2.15;;;21.90;99.90;;;;;;5035354;28;20038;-67
2022/01/13 03:25:03;;;;;;;9.75;2.35;;;22.00;99.90;;;;;;5031367;28;20068;-67
2022/01/13 03:27:34;;;;;;;7.95;1.90;;;22.10;99.90;;;;;;5030107;28;20015;-67
2022/01/13 03:30:05;;;;;;;7.03;1.60;;;22.10;99.90;;;;;;5033579;28;20073;-67
2022/01/13 03:32:33;;;;;;;6.47;1.50;;;22.10;99.90;;;;;;5035270;28;20047;-67
2022/01/13 03:35:01;;;;;;;5.68;1.02;;;22.20;99.90;;;;;;5024590;28;20036;-67
2022/01/13 03:37:30;;;;;;;7.30;1.80;;;22.20;99.90;;;;;;5032170;28;20489;-67
2022/01/13 03:39:58;;;;;;;6.00;1.08;;;22.30;99.90;;;;;;5030028;28;20025;-66
2022/01/13 03:42:26;;;;;;;4.32;1.55;;;22.40;99.90;;;;;;5019447;28;20540;-65
2022/01/13 03:44:54;;;;;;;4.28;0.98;;;22.30;99.90;;;;;;5023934;28;20030;-65
2022/01/13 03:47:22;;;;;;;10.20;1.98;;;22.50;99.90;;;;;;5033491;28;20410;-65
2022/01/13 03:49:50;;;;;;;5.43;1.70;;;22.60;99.90;;;;;;5033103;28;20111;-65
2022/01/13 03:52:23;;;;;;;4.50;1.02;;;22.60;99.90;;;;;;5034220;28;20494;-65
2022/01/13 03:55:17;;;;;;;6.10;1.53;;;22.60;99.90;;;;;;5025752;28;20029;-65
2022/01/13 03:58:18;;;;;;;5.68;1.23;;;22.50;99.90;;;;;;5019598;28;20038;-65
2022/01/13 04:01:18;;;;;;;5.18;1.35;;;22.40;99.90;;;;;;5023281;28;20034;-66
2022/01/13 04:03:46;;;;;;;7.05;1.60;;;22.10;99.90;;;;;;5025727;28;20028;-65
2022/01/13 04:06:16;;;;;;;7.80;1.63;;;22.00;99.90;;;;;;5020380;28;20029;-64
2022/01/13 04:08:49;;;;;;;9.30;1.70;;;21.90;99.90;;;;;;5027520;28;20053;-65
2022/01/13 04:11:31;;;;;;;4.97;0.77;;;21.90;99.90;;;;;;5046856;28;20078;-65
2022/01/13 04:14:01;;;;;;;8.05;1.15;;;21.60;99.90;;;;;;5042766;28;20305;-65
2022/01/13 04:16:33;;;;;;;7.05;1.38;;;21.50;99.90;;;;;;5033547;28;20061;-65
2022/01/13 04:19:05;;;;;;;7.38;0.85;;;21.60;99.90;;;;;;5028284;28;20029;-65
2022/01/13 04:21:37;;;;;;;5.88;0.90;;;21.60;99.90;;;;;;5028368;28;20079;-65
2022/01/13 04:24:06;;;;;;;9.75;1.60;;;21.50;99.90;;;;;;5019900;28;20026;-65
2022/01/13 04:26:34;;;;;;;4.13;0.75;;;21.60;99.90;;;;;;5028388;28;20418;-65
2022/01/13 04:30:10;;;;;;;8.55;1.30;;;21.60;99.90;;;;;;5015070;28;20034;-65
2022/01/13 04:31:52;;;;;;;6.53;1.45;;;21.60;99.90;;;;;;5027266;28;20040;-65
2022/01/13 04:34:20;;;;;;;9.10;1.75;;;21.70;99.90;;;;;;5029259;28;20033;-65
2022/01/13 04:36:48;;;;;;;6.70;1.23;;;21.70;99.90;;;;;;5027040;28;20048;-65
2022/01/13 04:39:17;;;;;;;9.35;1.80;;;21.80;99.90;;;;;;5032927;28;20025;-65
2022/01/13 04:41:46;;;;;;;5.80;1.55;;;21.80;99.90;;;;;;5024467;28;20075;-65
2022/01/13 04:44:17;;;;;;;8.07;1.50;;;21.80;99.90;;;;;;5016814;28;20030;-65
2022/01/13 04:46:45;;;;;;;9.60;1.73;;;21.80;99.90;;;;;;5028941;28;20101;-65
2022/01/13 04:49:12;;;;;;;5.97;1.42;;;21.80;99.90;;;;;;5024340;28;20095;-65
2022/01/13 04:51:41;;;;;;;8.32;1.88;;;21.90;99.90;;;;;;5012773;28;20030;-65
2022/01/13 04:54:09;;;;;;;7.30;1.38;;;21.90;99.90;;;;;;5029188;28;20079;-65
2022/01/13 04:57:04;;;;;;;6.50;1.33;;;21.80;99.90;;;;;;5029004;28;20097;-65
2022/01/13 04:59:28;;;;;;;6.95;1.30;;;21.80;99.90;;;;;;5021960;28;20025;-66
2022/01/13 05:01:56;;;;;;;8.13;0.80;;;21.90;99.90;;;;;;5017147;28;20062;-66
2022/01/13 05:04:23;;;;;;;7.10;1.15;;;22.00;99.90;;;;;;5023968;28;20500;-65
2022/01/13 05:06:51;;;;;;;10.07;1.52;;;21.90;99.90;;;;;;5030452;28;20029;-64
2022/01/13 05:09:18;;;;;;;6.75;1.25;;;21.90;99.90;;;;;;5030704;28;20120;-64
2022/01/13 05:11:45;;;;;;;6.43;0.85;;;21.90;99.90;;;;;;5030132;28;20022;-64
2022/01/13 05:14:12;;;;;;;8.93;2.00;;;22.00;99.90;;;;;;5030689;28;20033;-63
2022/01/13 05:19:22;;;;;;;9.48;1.70;;;22.20;99.90;;;;;;5024789;28;20127;-64
2022/01/13 05:24:26;;;;;;;7.00;1.20;;;22.30;99.90;;;;;;5025059;28;20033;-63
2022/01/13 05:26:54;;;;;;;12.48;2.13;;;22.30;99.90;;;;;;5015071;28;20133;-63
2022/01/13 05:29:21;;;;;;;9.50;0.95;;;22.40;99.90;;;;;;5019851;28;20076;-63
2022/01/13 05:31:50;;;;;;;8.63;0.90;;;22.60;99.90;;;;;;5018463;28;20033;-64
2022/01/13 05:34:18;;;;;;;8.18;1.00;;;22.70;99.90;;;;;;5028787;28;20083;-64
2022/01/13 05:36:46;;;;;;;6.13;1.27;;;22.70;99.90;;;;;;5021599;28;20026;-64
2022/01/13 05:39:13;;;;;;;3.88;0.80;;;22.60;99.90;;;;;;5029711;28;20391;-64
2022/01/13 05:41:41;;;;;;;4.93;0.52;;;22.50;99.90;;;;;;5025966;28;20018;-63
2022/01/13 05:44:08;;;;;;;4.43;0.75;;;22.50;99.90;;;;;;5030073;28;20144;-64
2022/01/13 05:46:35;;;;;;;7.35;1.05;;;22.50;99.90;;;;;;5029880;28;20387;-64
2022/01/13 05:49:03;;;;;;;5.25;1.10;;;22.60;99.90;;;;;;5026711;28;20033;-64
2022/01/13 05:51:30;;;;;;;4.97;0.75;;;22.90;99.90;;;;;;5023974;28;20029;-64
2022/01/13 05:53:57;;;;;;;7.63;0.85;;;22.90;99.90;;;;;;5028803;28;20021;-64
2022/01/13 05:56:25;;;;;;;6.82;1.75;;;23.10;99.90;;;;;;5026439;28;20030;-63
2022/01/13 05:58:52;;;;;;;5.75;0.80;;;23.20;99.90;;;;;;5031208;28;20188;-64
2022/01/13 06:01:20;;;;;;;6.22;1.33;;;23.10;99.90;;;;;;5026135;28;20037;-63
2022/01/13 06:03:47;;;;;;;7.45;1.25;;;23.10;99.90;;;;;;5016561;28;20478;-63
2022/01/13 06:06:15;;;;;;;5.03;0.88;;;23.10;99.90;;;;;;5028612;28;20034;-63
2022/01/13 06:08:42;;;;;;;5.93;0.85;;;23.20;99.90;;;;;;5019231;28;20498;-63
2022/01/13 06:11:09;;;;;;;10.27;0.95;;;23.30;99.90;;;;;;5022542;28;20037;-63
2022/01/13 06:13:36;;;;;;;4.40;0.70;;;23.30;99.90;;;;;;5031506;28;20108;-63
2022/01/13 06:16:04;;;;;;;3.83;0.52;;;23.30;99.90;;;;;;5030490;28;20025;-63
2022/01/13 06:18:31;;;;;;;2.80;0.50;;;23.20;99.90;;;;;;5024365;28;20068;-63
2022/01/13 06:20:59;;;;;;;3.97;0.70;;;23.00;99.90;;;;;;5031849;28;20046;-63
2022/01/13 06:23:26;;;;;;;2.83;0.63;;;23.00;99.90;;;;;;5022530;28;20096;-63
2022/01/13 06:25:53;;;;;;;2.05;0.70;;;23.00;99.90;;;;;;5028041;28;20359;-63
2022/01/13 06:28:20;;;;;;;5.28;0.70;;;23.00;99.90;;;;;;5034939;28;20055;-63
2022/01/13 06:30:48;;;;;;;3.65;0.70;;;23.00;99.90;;;;;;5032531;28;21807;-63
2022/01/13 06:33:15;;;;;;;6.88;0.88;;;23.00;99.90;;;;;;5029752;28;20037;-62
2022/01/13 06:35:42;;;;;;;1.98;0.40;;;22.90;99.90;;;;;;5029265;28;20546;-63
2022/01/13 06:38:10;;;;;;;4.88;0.70;;;23.00;99.90;;;;;;5017706;28;20022;-62
2022/01/13 06:40:37;;;;;;;4.68;0.75;;;22.90;99.90;;;;;;5021493;28;20030;-62
2022/01/13 06:43:05;;;;;;;1.88;0.40;;;22.90;99.90;;;;;;5026489;28;20026;-63
2022/01/13 06:45:32;;;;;;;3.25;0.98;;;22.80;99.90;;;;;;5033229;28;20509;-63
2022/01/13 06:47:59;;;;;;;4.88;0.95;;;22.80;99.90;;;;;;5027118;28;20104;-63
2022/01/13 06:50:28;;;;;;;4.10;0.50;;;22.80;99.90;;;;;;5023218;28;20429;-63
2022/01/13 06:52:56;;;;;;;5.57;0.80;;;22.80;99.90;;;;;;5027216;28;20497;-63
2022/01/13 06:55:23;;;;;;;7.57;1.20;;;22.80;99.90;;;;;;5033434;28;20071;-63
2022/01/13 06:57:52;;;;;;;6.13;0.90;;;22.80;99.90;;;;;;5022746;28;20026;-63
2022/01/13 07:00:21;;;;;;;3.85;0.85;;;22.80;99.90;;;;;;5026241;28;20029;-63
2022/01/13 07:02:49;;;;;;;6.53;0.63;;;22.80;99.90;;;;;;5034440;28;20026;-63
2022/01/13 07:05:16;;;;;;;3.95;0.55;;;22.80;99.90;;;;;;5034211;28;20041;-63
2022/01/13 07:07:43;;;;;;;11.32;1.38;;;22.80;99.90;;;;;;5027222;28;20486;-62
2022/01/13 07:10:12;;;;;;;3.35;0.88;;;22.80;99.90;;;;;;5032464;28;20030;-62
2022/01/13 07:12:41;;;;;;;9.02;1.00;;;22.80;99.90;;;;;;5027684;28;20100;-62
2022/01/13 07:15:11;;;;;;;4.53;1.27;;;22.70;99.90;;;;;;5033783;28;20026;-62
2022/01/13 07:17:39;;;;;;;7.70;1.73;;;22.70;99.90;;;;;;5029077;28;20112;-62
2022/01/13 07:20:07;;;;;;;6.00;1.08;;;22.80;99.90;;;;;;5021974;28;20541;-63
2022/01/13 07:22:36;;;;;;;4.05;0.80;;;22.80;99.90;;;;;;5022707;28;20025;-64
2022/01/13 07:25:05;;;;;;;3.33;0.82;;;22.80;99.90;;;;;;5027982;28;20040;-64
2022/01/13 07:27:32;;;;;;;5.32;1.10;;;22.80;99.90;;;;;;5028852;28;20030;-64
2022/01/13 07:29:59;;;;;;;4.70;0.77;;;22.70;99.90;;;;;;5016638;28;20038;-64
2022/01/13 07:32:27;;;;;;;5.93;0.95;;;22.70;99.90;;;;;;5025605;28;20025;-64
2022/01/13 07:34:54;;;;;;;5.20;0.85;;;22.70;99.90;;;;;;5024971;28;20042;-65
2022/01/13 07:37:24;;;;;;;6.78;1.33;;;22.70;99.90;;;;;;5027644;28;20021;-65
2022/01/13 07:39:51;;;;;;;5.43;0.90;;;22.80;99.90;;;;;;5026001;28;20026;-64
2022/01/13 07:42:19;;;;;;;2.88;0.70;;;23.00;99.90;;;;;;5032263;28;20018;-64
2022/01/13 07:44:46;;;;;;;6.40;0.85;;;23.20;99.90;;;;;;5023195;28;20041;-66
2022/01/13 07:47:14;;;;;;;6.07;0.90;;;22.90;99.90;;;;;;5027006;28;20603;-65
2022/01/13 07:49:41;;;;;;;3.20;0.70;;;22.80;99.90;;;;;;5032266;28;20398;-65
2022/01/13 07:52:08;;;;;;;3.83;0.73;;;22.80;99.90;;;;;;5032701;28;20022;-65
2022/01/13 07:54:36;;;;;;;4.88;0.52;;;22.80;99.90;;;;;;5028608;28;20049;-65
2022/01/13 07:57:03;;;;;;;2.38;0.50;;;23.00;99.90;;;;;;5014425;28;20390;-65
2022/01/13 07:59:31;;;;;;;5.30;0.60;;;22.80;99.90;;;;;;5016562;28;20026;-65
2022/01/13 08:01:59;;;;;;;3.58;0.52;;;22.70;99.90;;;;;;5024942;28;20029;-65
2022/01/13 08:04:27;;;;;;;3.35;0.55;;;22.70;99.90;;;;;;5027843;28;20068;-65
2022/01/13 08:06:55;;;;;;;4.00;0.85;;;22.60;99.90;;;;;;5032705;28;20041;-65
2022/01/13 08:09:23;;;;;;;3.45;0.50;;;22.50;99.90;;;;;;5028669;28;20522;-65
2022/01/13 08:11:50;;;;;;;4.90;0.60;;;22.50;99.90;;;;;;5029957;28;20033;-65
2022/01/13 08:14:18;;;;;;;4.68;0.50;;;22.50;99.90;;;;;;5030318;28;20057;-65
2022/01/13 08:16:45;;;;;;;4.78;0.40;;;22.50;99.90;;;;;;5015507;28;20029;-65
2022/01/13 08:21:58;;;;;;;4.82;1.05;;;22.40;99.90;;;;;;5033127;28;20091;-65
2022/01/13 08:24:26;;;;;;;5.05;0.52;;;22.30;99.90;;;;;;5033592;28;20037;-65
2022/01/13 08:26:53;;;;;;;4.65;0.68;;;22.40;99.90;;;;;;5021955;28;20030;-65
2022/01/13 08:29:21;;;;;;;5.65;0.68;;;22.40;99.90;;;;;;5033832;28;20028;-64
2022/01/13 08:31:48;;;;;;;3.55;0.50;;;22.30;99.90;;;;;;5027032;28;20493;-65
2022/01/13 08:34:16;;;;;;;4.13;1.10;;;22.30;99.90;;;;;;5024740;28;20041;-65
2022/01/13 08:36:44;;;;;;;8.93;1.55;;;22.30;99.90;;;;;;5026534;28;20057;-65
2022/01/13 08:39:11;;;;;;;6.88;0.70;;;22.30;99.90;;;;;;5021800;28;20026;-65
2022/01/13 08:41:40;;;;;;;4.03;0.75;;;22.30;99.90;;;;;;5032491;28;20033;-64
2022/01/13 08:44:08;;;;;;;3.25;0.43;;;22.20;99.90;;;;;;5026082;28;20030;-65
2022/01/13 08:46:35;;;;;;;4.85;0.70;;;22.20;99.90;;;;;;5033245;28;20025;-65
2022/01/13 08:49:03;;;;;;;5.32;0.82;;;22.10;99.90;;;;;;5030735;28;20107;-64
2022/01/13 08:51:31;;;;;;;6.55;0.88;;;22.10;99.90;;;;;;5032892;28;20060;-65
2022/01/13 08:53:58;;;;;;;7.97;1.23;;;22.00;99.90;;;;;;5031186;28;20041;-64
2022/01/13 08:56:26;;;;;;;5.60;1.00;;;22.00;99.90;;;;;;5024362;28;20378;-65
2022/01/13 08:58:53;;;;;;;7.38;1.02;;;22.00;99.90;;;;;;5023892;28;20135;-65
2022/01/13 09:01:21;;;;;;;4.95;0.88;;;22.00;99.90;;;;;;5021479;28;20112;-64
2022/01/13 09:03:49;;;;;;;8.93;0.95;;;21.90;99.90;;;;;;5023426;28;20045;-65
2022/01/13 09:06:16;;;;;;;5.68;0.80;;;21.90;99.90;;;;;;5017786;28;20034;-64
2022/01/13 09:08:45;;;;;;;6.90;1.23;;;22.00;99.90;;;;;;5033137;28;20044;-65
2022/01/13 09:11:13;;;;;;;5.53;1.05;;;21.90;99.90;;;;;;5023914;28;20429;-65
2022/01/13 09:13:42;;;;;;;7.10;1.10;;;21.90;99.90;;;;;;5020948;28;20033;-65
2022/01/13 09:16:17;;;;;;;6.15;0.50;;;21.90;99.90;;;;;;5024845;28;20037;-65
2022/01/13 09:21:29;;;;;;;9.32;2.03;;;21.80;99.90;;;;;;5023197;28;20029;-65
2022/01/13 09:23:56;;;;;;;7.93;0.70;;;21.80;99.90;;;;;;5032543;28;20025;-65
2022/01/13 09:26:24;;;;;;;7.10;1.30;;;21.80;99.90;;;;;;5032335;28;20398;-65
2022/01/13 09:28:52;;;;;;;8.85;1.38;;;21.80;99.90;;;;;;5032732;28;20111;-65
2022/01/13 09:31:22;;;;;;;7.78;1.05;;;21.80;99.90;;;;;;5032716;28;20030;-65
2022/01/13 09:33:52;;;;;;;7.55;1.42;;;21.80;99.90;;;;;;5026355;28;20037;-65
2022/01/13 09:36:20;;;;;;;6.65;1.08;;;21.80;99.90;;;;;;5020182;28;20104;-64
2022/01/13 09:38:47;;;;;;;8.32;1.00;;;21.80;99.90;;;;;;5030177;28;20037;-65
2022/01/13 09:41:15;;;;;;;3.95;0.65;;;21.80;99.90;;;;;;5032026;28;20049;-65
2022/01/13 09:43:45;;;;;;;7.70;1.40;;;21.80;99.90;;;;;;5027966;28;20124;-64
2022/01/13 09:46:13;;;;;;;7.47;1.00;;;21.80;99.90;;;;;;5028091;28;20071;-65
2022/01/13 09:48:43;;;;;;;8.32;0.98;;;21.80;99.90;;;;;;5011144;28;20049;-65
2022/01/13 09:51:11;;;;;;;8.88;0.93;;;21.80;99.90;;;;;;5016427;28;20053;-65
2022/01/13 09:53:39;;;;;;;4.80;0.82;;;21.80;99.90;;;;;;5015239;28;20026;-64
2022/01/13 09:56:07;;;;;;;7.90;1.80;;;21.80;99.90;;;;;;4997623;28;20097;-64
2022/01/13 09:58:34;;;;;;;12.95;1.40;;;21.80;99.90;;;;;;5012876;28;20483;-65
2022/01/13 10:01:03;;;;;;;8.98;1.25;;;21.80;99.90;;;;;;5016767;28;20021;-64
2022/01/13 10:03:33;;;;;;;9.13;1.42;;;21.80;99.90;;;;;;5030334;28;20036;-64
2022/01/13 10:06:07;;;;;;;6.70;1.08;;;21.80;99.90;;;;;;5032371;28;20025;-65
2022/01/13 10:08:52;;;;;;;10.57;1.25;;;21.80;99.90;;;;;;5012521;28;20037;-64
2022/01/13 10:11:27;;;;;;;7.93;1.15;;;21.80;99.90;;;;;;5012919;28;20033;-64
2022/01/13 10:14:16;;;;;;;5.68;0.98;;;21.80;99.90;;;;;;5019209;28;20034;-64
2022/01/13 10:16:49;;;;;;;9.05;1.52;;;21.70;99.90;;;;;;5027177;28;20022;-65
2022/01/13 10:19:37;;;;;;;9.23;1.38;;;21.80;99.90;;;;;;5020852;28;20171;-65
2022/01/13 10:22:05;;;;;;;13.75;1.55;;;21.70;99.90;;;;;;5012418;28;20029;-65
2022/01/13 10:24:37;;;;;;;11.95;1.25;;;21.80;99.90;;;;;;5017460;28;20497;-65
2022/01/13 10:27:12;;;;;;;6.55;1.05;;;21.80;99.90;;;;;;5024058;28;20105;-65
2022/01/13 10:29:58;;;;;;;6.57;1.15;;;21.70;99.90;;;;;;5033398;28;20022;-65
2022/01/13 10:32:32;;;;;;;8.65;1.10;;;21.80;99.90;;;;;;5031830;28;20022;-65
2022/01/13 10:35:20;;;;;;;22.83;2.10;;;21.80;99.90;;;;;;5030888;28;20041;-65
2022/01/13 10:37:57;;;;;;;7.25;0.82;;;21.80;99.90;;;;;;5032196;28;20042;-65
2022/01/13 10:40:31;;;;;;;7.95;1.40;;;21.80;99.90;;;;;;5030310;28;20493;-64
2022/01/13 10:45:42;;;;;;;7.90;1.17;;;21.80;99.90;;;;;;5014919;28;20548;-63
2022/01/13 10:48:18;;;;;;;12.95;1.50;;;21.90;99.90;;;;;;5014976;28;20056;-63
2022/01/13 10:50:50;;;;;;;7.88;0.93;;;21.80;99.90;;;;;;5014455;28;20040;-64
2022/01/13 10:53:26;;;;;;;8.10;1.80;;;21.80;99.90;;;;;;5014923;28;20026;-65
2022/01/13 10:55:57;;;;;;;7.47;0.90;;;21.80;99.90;;;;;;5025324;28;20037;-65
2022/01/13 10:58:30;;;;;;;8.85;1.20;;;21.80;99.90;;;;;;5018780;28;20026;-66
2022/01/13 11:00:58;;;;;;;7.18;1.35;;;21.80;99.90;;;;;;5024051;28;20457;-66
2022/01/13 11:03:28;;;;;;;9.85;0.98;;;21.80;99.90;;;;;;5032064;28;20033;-66
2022/01/13 11:05:59;;;;;;;6.53;0.90;;;21.80;99.90;;;;;;5035297;28;20029;-66
2022/01/13 11:08:40;;;;;;;7.18;0.98;;;21.80;99.90;;;;;;5035498;28;20022;-66
2022/01/13 11:11:17;;;;;;;10.55;1.95;;;21.80;99.90;;;;;;5034307;28;20026;-66
2022/01/13 11:13:57;;;;;;;6.35;1.15;;;21.80;99.90;;;;;;5033124;28;20033;-66
2022/01/13 11:16:26;;;;;;;7.72;1.13;;;21.80;99.90;;;;;;5033737;28;20026;-66
2022/01/13 11:18:54;;;;;;;8.60;1.35;;;21.80;99.90;;;;;;5027616;28;20052;-66
2022/01/13 11:21:22;;;;;;;9.48;1.67;;;21.80;99.90;;;;;;5021141;28;20454;-66
2022/01/13 11:23:53;;;;;;;10.55;1.35;;;21.80;99.90;;;;;;5019247;28;20036;-67
2022/01/13 11:26:26;;;;;;;10.40;2.25;;;21.80;99.90;;;;;;5034808;28;20109;-67
2022/01/13 11:28:55;;;;;;;6.35;1.77;;;21.80;99.90;;;;;;5025740;28;20036;-66
2022/01/13 11:31:23;;;;;;;8.43;2.00;;;21.70;99.90;;;;;;5035095;28;20128;-67
2022/01/13 11:33:51;;;;;;;9.40;1.20;;;21.70;99.90;;;;;;5020364;28;20072;-67
2022/01/13 11:36:19;;;;;;;6.72;1.20;;;21.70;99.90;;;;;;5033990;28;20029;-66
2022/01/13 11:39:06;;;;;;;9.15;1.58;;;21.70;99.90;;;;;;5034727;28;20124;-66
2022/01/13 11:41:34;;;;;;;8.93;2.13;;;21.60;99.90;;;;;;5025246;28;20389;-67
2022/01/13 11:44:17;;;;;;;10.23;1.65;;;21.60;99.90;;;;;;5019273;28;20025;-67
2022/01/13 11:46:50;;;;;;;11.97;2.03;;;21.60;99.90;;;;;;5015025;28;20513;-67
2022/01/13 11:49:31;;;;;;;9.57;2.03;;;21.60;99.90;;;;;;5033957;28;20510;-66
2022/01/13 11:52:09;;;;;;;10.80;1.63;;;21.60;99.90;;;;;;5021633;28;20080;-66
2022/01/13 11:54:38;;;;;;;11.70;1.67;;;21.60;99.90;;;;;;5033029;28;20037;-66
2022/01/13 11:57:22;;;;;;;12.32;2.90;;;21.60;99.90;;;;;;5027657;28;20076;-67
2022/01/13 11:59:59;;;;;;;11.75;2.83;;;21.60;99.90;;;;;;5030563;28;20026;-66
2022/01/13 12:02:30;;;;;;;9.25;1.33;;;21.50;99.90;;;;;;5017618;28;20026;-66
2022/01/13 12:05:17;;;;;;;15.40;1.92;;;21.60;99.90;;;;;;5027059;28;20036;-67
2022/01/13 12:07:48;;;;;;;9.43;1.83;;;21.40;99.90;;;;;;5015373;28;20482;-66
2022/01/13 12:10:24;;;;;;;11.30;1.83;;;21.40;99.90;;;;;;5030376;28;20067;-66
2022/01/13 12:12:53;;;;;;;12.13;1.52;;;21.40;99.90;;;;;;5021840;28;20029;-67
2022/01/13 12:15:26;;;;;;;9.80;1.70;;;21.30;99.90;;;;;;5021964;28;20433;-67
2022/01/13 12:18:04;;;;;;;11.15;2.05;;;21.40;99.90;;;;;;5032183;28;20021;-66
2022/01/13 12:23:40;;;;;;;6.57;0.95;;;21.30;99.90;;;;;;5021321;28;20117;-67
2022/01/13 12:26:33;;;;;;;7.72;0.60;;;21.30;99.90;;;;;;5017075;28;20033;-67
2022/01/13 12:29:21;;;;;;;13.98;3.10;;;21.30;99.90;;;;;;5019330;28;20125;-67
2022/01/13 12:31:53;;;;;;;12.07;1.55;;;21.20;99.90;;;;;;5033681;28;20056;-67
2022/01/13 12:34:48;;;;;;;8.48;1.60;;;21.20;99.90;;;;;;5017945;28;20022;-67
2022/01/13 12:37:15;;;;;;;7.47;1.98;;;21.20;99.90;;;;;;5014394;28;20489;-66
2022/01/13 12:39:43;;;;;;;7.72;1.27;;;21.20;99.90;;;;;;5022940;28;20375;-67
2022/01/13 12:42:22;;;;;;;9.30;1.60;;;21.20;99.90;;;;;;5024999;28;20033;-67
2022/01/13 12:47:36;;;;;;;7.47;0.95;;;21.20;99.90;;;;;;5017021;28;20137;-67
2022/01/13 12:50:18;;;;;;;4.95;0.90;;;21.20;99.90;;;;;;5023077;28;20098;-67
2022/01/13 12:52:45;;;;;;;10.88;1.50;;;21.20;99.90;;;;;;5027656;28;20026;-67
2022/01/13 12:55:14;;;;;;;7.45;1.17;;;21.20;99.90;;;;;;5027963;28;20032;-67
2022/01/13 12:57:52;;;;;;;6.10;1.65;;;21.20;99.90;;;;;;5022338;28;20136;-67
2022/01/13 13:00:22;;;;;;;7.43;1.35;;;21.20;99.90;;;;;;5023905;28;20022;-67
2022/01/13 13:03:07;;;;;;;10.70;2.17;;;21.30;99.90;;;;;;5031963;28;20489;-67
2022/01/13 13:05:40;;;;;;;8.48;1.33;;;21.30;99.90;;;;;;5024289;28;20057;-67
2022/01/13 13:08:10;;;;;;;10.40;1.20;;;21.30;99.90;;;;;;5022470;28;20363;-66
2022/01/13 13:10:41;;;;;;;11.30;1.60;;;21.30;99.90;;;;;;5026387;28;20551;-66
2022/01/13 13:13:08;;;;;;;11.15;2.70;;;21.30;99.90;;;;;;5031161;28;20021;-67
2022/01/13 13:18:03;;;;;;;8.27;1.58;;;21.30;99.90;;;;;;5015118;28;20061;-66
2022/01/13 13:20:32;;;;;;;10.98;1.83;;;21.30;99.90;;;;;;5026251;28;20037;-67
2022/01/13 13:23:03;;;;;;;7.45;1.60;;;21.30;99.90;;;;;;5020679;28;20030;-66
2022/01/13 13:25:36;;;;;;;9.35;2.20;;;21.30;99.90;;;;;;5016977;28;20052;-67
2022/01/13 13:28:24;;;;;;;11.18;1.48;;;21.30;99.90;;;;;;5030466;28;20386;-67
2022/01/13 13:31:04;;;;;;;8.10;1.40;;;21.30;99.90;;;;;;5029474;28;20505;-67
2022/01/13 13:34:00;;;;;;;8.32;1.88;;;21.40;99.90;;;;;;5031990;28;20025;-67
2022/01/13 13:36:32;;;;;;;7.95;1.20;;;21.40;99.90;;;;;;5032390;28;20032;-67
2022/01/13 13:39:07;;;;;;;8.80;1.58;;;21.30;99.90;;;;;;5011493;28;20033;-67
2022/01/13 13:41:38;;;;;;;5.88;0.77;;;21.40;99.90;;;;;;5023755;28;20026;-67